San Nicolas Island, California
Current Conditions -  °F | °C
As of 8:51 PM on Sunday 19 Oct 2014 (Local Time) from KAVX Reporting Station
Moderate Fog Moderate Fog  
Wind Chill: 60°   Ceiling: 100
Heat Index: 60°   Visibility: 0.5mi
Dew Point: 58°   Wind: 9mph
Humidity: 93%   Direction: 230°SW
Pressure: 29.91"   Gusts: NA
Location:  33.25°N, 119.45°W
Report Text: KAVX 200351Z AUTO 23008KT 1/2SM FG VV001 16/14 A2991 RMK AO2 SLP115 T01560144 $
Loading
Personal Weather Stations






























Interactive Weather Map
Tropical Storm Tracking
New forecast layout! Learn more

10-Day Weather Forecast

Advertisements
Track Severe Weather on mobile